createdAt,value
2017-11-17T00:02:09.544Z,72.40
2017-11-17T00:04:38.830Z,92.03
2017-11-17T00:07:07.969Z,78.27
2017-11-17T00:09:36.288Z,81.63
2017-11-17T00:12:04.766Z,84.97
2017-11-17T00:14:33.541Z,85.13
2017-11-17T00:17:02.110Z,94.90
2017-11-17T00:19:30.448Z,82.07
2017-11-17T00:21:58.708Z,82.53
2017-11-17T00:24:29.217Z,82.23
2017-11-17T00:26:57.761Z,89.70
2017-11-17T00:29:26.032Z,73.73
2017-11-17T00:31:54.465Z,80.83
2017-11-17T00:34:23.487Z,95.67
2017-11-17T00:36:52.233Z,71.33
2017-11-17T00:39:20.771Z,69.63
2017-11-17T00:41:49.028Z,75.00
2017-11-17T00:44:17.489Z,79.30
2017-11-17T00:46:46.682Z,66.07
2017-11-17T00:49:15.744Z,71.93
2017-11-17T00:51:44.484Z,85.47
2017-11-17T00:54:13.000Z,79.50
2017-11-17T00:56:41.594Z,68.47
2017-11-17T00:59:09.889Z,71.60
2017-11-17T01:01:38.172Z,61.70
2017-11-17T01:04:06.591Z,90.27
2017-11-17T01:06:34.832Z,64.20
2017-11-17T01:09:04.631Z,88.70
2017-11-17T01:11:33.635Z,66.97
2017-11-17T01:14:01.978Z,85.70
2017-11-17T01:16:30.203Z,85.90
2017-11-17T01:18:58.713Z,90.80
2017-11-17T01:21:27.049Z,101.53
2017-11-17T01:23:56.152Z,85.13
2017-11-17T01:26:25.155Z,99.90
2017-11-17T01:28:53.469Z,67.50
2017-11-17T01:31:22.035Z,73.87
2017-11-17T01:33:50.379Z,112.03
2017-11-17T01:36:18.997Z,73.80
2017-11-17T01:38:47.535Z,78.87
2017-11-17T01:41:16.751Z,78.33
2017-11-17T01:43:45.180Z,84.97
2017-11-17T01:46:13.586Z,63.90
2017-11-17T01:48:42.015Z,95.30
2017-11-17T01:51:10.350Z,81.10
2017-11-17T01:53:39.458Z,75.80
2017-11-17T01:56:07.891Z,71.63
2017-11-17T01:58:36.389Z,71.97
2017-11-17T02:01:05.275Z,65.27
2017-11-17T02:03:33.886Z,102.03
2017-11-17T02:06:02.945Z,72.80
2017-11-17T02:08:31.351Z,61.20
2017-11-17T02:11:00.631Z,70.63
2017-11-17T02:13:28.899Z,66.37
2017-11-17T02:15:57.216Z,84.17
2017-11-17T02:18:26.289Z,67.97
2017-11-17T02:20:54.570Z,71.77
2017-11-17T02:23:23.742Z,85.50
2017-11-17T02:25:51.986Z,65.97
2017-11-17T02:28:20.362Z,99.63
2017-11-17T02:30:48.842Z,63.43
2017-11-17T02:33:17.206Z,54.30
2017-11-17T02:35:45.534Z,75.63
2017-11-17T02:38:13.852Z,70.50
2017-11-17T02:40:42.164Z,77.30
2017-11-17T02:43:10.476Z,81.17
2017-11-17T02:45:38.856Z,89.33
2017-11-17T02:48:07.219Z,94.43
2017-11-17T02:50:36.323Z,84.70
2017-11-17T02:53:04.804Z,70.87
2017-11-17T02:55:33.146Z,69.27
2017-11-17T02:58:01.466Z,66.27
2017-11-17T03:00:30.601Z,82.47
2017-11-17T03:02:59.270Z,80.93
2017-11-17T03:05:28.459Z,93.53
2017-11-17T03:07:57.552Z,86.43
2017-11-17T03:10:26.851Z,65.57
2017-11-17T03:12:56.188Z,83.67
2017-11-17T03:15:24.514Z,82.27
2017-11-17T03:17:53.724Z,56.13
2017-11-17T03:20:22.931Z,66.00
2017-11-17T03:22:51.299Z,84.47
2017-11-17T03:25:20.390Z,74.27
2017-11-17T03:27:48.823Z,63.83
2017-11-17T03:30:17.118Z,67.90
2017-11-17T03:32:45.618Z,82.57
2017-11-17T03:35:14.721Z,65.80
2017-11-17T03:37:43.888Z,92.37
2017-11-17T03:40:12.553Z,77.10
2017-11-17T03:42:41.613Z,96.30
2017-11-17T03:45:10.297Z,107.43
2017-11-17T03:47:38.729Z,80.00
2017-11-17T03:50:07.228Z,78.70
2017-11-17T03:52:35.845Z,99.03
2017-11-17T03:55:04.193Z,105.00
2017-11-17T03:57:32.490Z,107.33
2017-11-17T04:00:01.804Z,108.43
2017-11-17T04:02:30.318Z,106.53
2017-11-17T04:04:58.644Z,114.03
2017-11-17T04:07:27.855Z,104.00
2017-11-17T04:09:56.506Z,61.10
2017-11-17T04:12:25.037Z,108.83
2017-11-17T04:14:54.154Z,105.67
2017-11-17T04:17:22.612Z,92.57
2017-11-17T04:19:51.244Z,112.53
2017-11-17T04:22:19.677Z,93.10
2017-11-17T04:24:48.037Z,111.97
2017-11-17T04:27:17.366Z,79.43
2017-11-17T04:29:45.693Z,92.77
2017-11-17T04:32:14.136Z,128.37
2017-11-17T04:34:42.463Z,167.40
2017-11-17T04:37:11.040Z,73.47
2017-11-17T04:39:40.062Z,54.93
2017-11-17T04:42:08.470Z,60.47
2017-11-17T04:44:36.859Z,58.80
2017-11-17T04:47:05.296Z,83.90
2017-11-17T04:49:33.723Z,72.37
2017-11-17T04:52:03.055Z,92.53
2017-11-17T04:54:32.260Z,94.97
2017-11-17T04:57:00.835Z,115.07
2017-11-17T04:59:30.058Z,135.20
2017-11-17T05:01:58.354Z,149.17
2017-11-17T05:04:26.676Z,132.77
2017-11-17T05:06:56.420Z,103.33
2017-11-17T05:09:24.701Z,95.90
2017-11-17T05:11:53.161Z,99.43
2017-11-17T05:14:22.355Z,63.20
2017-11-17T05:16:51.700Z,64.10
2017-11-17T05:19:20.103Z,63.43
2017-11-17T05:21:48.495Z,90.70
2017-11-17T05:24:18.004Z,56.40
2017-11-17T05:26:46.477Z,85.67
2017-11-17T05:29:14.987Z,60.67
2017-11-17T05:31:43.343Z,85.67
2017-11-17T05:34:12.557Z,67.93
2017-11-17T05:36:41.682Z,92.27
2017-11-17T05:39:10.244Z,70.07
2017-11-17T05:41:38.656Z,72.90
2017-11-17T05:44:06.975Z,59.43
2017-11-17T05:46:35.300Z,61.23
2017-11-17T05:49:03.609Z,89.30
2017-11-17T05:51:31.877Z,68.40
2017-11-17T05:54:00.880Z,59.90
2017-11-17T05:56:29.379Z,84.80
2017-11-17T05:58:59.286Z,58.03
2017-11-17T06:01:28.669Z,89.57
2017-11-17T06:03:57.784Z,86.90
2017-11-17T06:06:27.090Z,98.50
2017-11-17T06:08:57.166Z,83.83
2017-11-17T06:11:25.820Z,121.20
2017-11-17T06:13:55.000Z,113.10
2017-11-17T06:16:24.881Z,102.17
2017-11-17T06:19:03.520Z,103.93
2017-11-17T06:21:33.098Z,96.17
2017-11-17T06:24:02.319Z,112.60
2017-11-17T06:26:30.717Z,83.67
2017-11-17T06:29:02.427Z,77.87
2017-11-17T06:31:30.689Z,60.73
2017-11-17T06:33:59.128Z,69.37
2017-11-17T06:36:28.933Z,78.43
2017-11-17T06:38:58.416Z,84.83
2017-11-17T06:41:26.992Z,63.87
2017-11-17T06:43:55.413Z,60.20
2017-11-17T06:46:24.016Z,64.90
2017-11-17T06:48:53.436Z,69.10
2017-11-17T06:51:21.996Z,62.73
2017-11-17T06:53:50.255Z,104.03
2017-11-17T06:56:18.566Z,97.03
2017-11-17T06:58:46.910Z,78.93
2017-11-17T07:01:15.267Z,81.20
2017-11-17T07:03:44.422Z,72.97
2017-11-17T07:06:13.435Z,84.20
2017-11-17T07:08:42.664Z,54.83
2017-11-17T07:11:12.505Z,60.03
2017-11-17T07:13:42.281Z,59.80
2017-11-17T07:16:11.002Z,72.70
2017-11-17T07:18:40.502Z,64.37
2017-11-17T07:21:09.083Z,64.80
2017-11-17T07:23:37.430Z,70.80
2017-11-17T07:26:07.702Z,63.30
2017-11-17T07:28:36.080Z,61.67
2017-11-17T07:31:11.567Z,59.73
2017-11-17T07:33:39.919Z,64.33
2017-11-17T07:36:08.849Z,57.33
2017-11-17T07:38:40.995Z,49.43
2017-11-17T07:41:12.379Z,55.33
2017-11-17T07:43:40.909Z,47.90
2017-11-17T07:46:09.139Z,50.93
2017-11-17T07:48:38.033Z,45.53
2017-11-17T07:51:06.387Z,53.37
2017-11-17T07:53:36.085Z,51.37
2017-11-17T07:56:04.471Z,50.60
2017-11-17T07:58:33.910Z,51.17
2017-11-17T08:01:05.277Z,48.80
2017-11-17T08:03:33.522Z,54.27
2017-11-17T08:06:01.883Z,46.00
2017-11-17T08:08:30.281Z,48.47
2017-11-17T08:10:58.597Z,52.60
2017-11-17T08:13:26.974Z,50.10
2017-11-17T08:15:55.815Z,51.10
2017-11-17T08:32:04.198Z,48.30
2017-11-17T08:34:32.619Z,47.73
2017-11-17T08:37:00.863Z,49.63
2017-11-17T08:39:29.347Z,47.40
2017-11-17T08:41:57.616Z,44.20
2017-11-17T08:44:25.888Z,41.87
2017-11-17T08:46:55.069Z,45.67
2017-11-17T08:49:23.378Z,41.77
2017-11-17T08:51:51.682Z,54.90
2017-11-17T08:54:20.036Z,39.17
2017-11-17T08:56:48.291Z,41.97
2017-11-17T08:59:16.549Z,43.90
2017-11-17T09:01:45.005Z,38.47
2017-11-17T09:04:13.247Z,38.10
2017-11-17T09:06:41.532Z,42.27
2017-11-17T09:09:09.858Z,39.40
2017-11-17T09:11:38.121Z,41.00
2017-11-17T09:14:06.401Z,37.70
2017-11-17T09:16:38.335Z,39.50
2017-11-17T09:19:06.601Z,39.20
2017-11-17T09:21:36.067Z,36.23
2017-11-17T09:24:05.413Z,38.00
2017-11-17T09:26:34.332Z,38.07
2017-11-17T09:29:02.657Z,48.03
2017-11-17T09:31:31.787Z,36.73
2017-11-17T09:34:00.100Z,40.70
2017-11-17T09:36:29.114Z,40.77
2017-11-17T09:38:57.794Z,38.63
2017-11-17T09:41:28.201Z,40.53
2017-11-17T09:43:57.845Z,36.23
2017-11-17T09:46:26.247Z,41.30
2017-11-17T09:48:54.514Z,43.37
2017-11-17T09:51:22.824Z,35.50
2017-11-17T09:53:51.199Z,54.03
2017-11-17T09:56:20.559Z,44.23
2017-11-17T09:58:53.117Z,48.37
2017-11-17T10:01:21.981Z,60.00
2017-11-17T10:03:52.044Z,91.53
2017-11-17T10:06:20.992Z,95.90
2017-11-17T10:08:49.405Z,40.30
2017-11-17T10:11:17.910Z,48.07
2017-11-17T10:13:46.177Z,44.13
2017-11-17T10:16:15.276Z,42.20
2017-11-17T10:18:44.628Z,42.97
2017-11-17T10:21:13.684Z,43.70
2017-11-17T10:23:42.212Z,43.10
2017-11-17T10:26:11.765Z,39.60
2017-11-17T10:28:40.701Z,49.43
2017-11-17T10:31:09.725Z,38.07
2017-11-17T10:33:38.238Z,41.90
2017-11-17T10:36:09.523Z,43.53
2017-11-17T10:38:39.680Z,45.53
2017-11-17T10:41:07.935Z,55.07
2017-11-17T10:43:36.208Z,44.20
2017-11-17T10:46:04.543Z,43.20
2017-11-17T10:48:32.968Z,42.10
2017-11-17T10:51:01.357Z,43.77
2017-11-17T10:53:33.500Z,39.90
2017-11-17T10:56:04.587Z,39.30
2017-11-17T10:58:33.943Z,39.57
2017-11-17T11:01:06.511Z,34.90
2017-11-17T11:03:35.751Z,42.37
2017-11-17T11:06:04.050Z,37.20
2017-11-17T11:08:33.191Z,38.97
2017-11-17T11:11:08.292Z,43.60
2017-11-17T11:13:37.423Z,35.93
2017-11-17T11:16:07.572Z,38.70
2017-11-17T11:18:37.067Z,40.10
2017-11-17T11:21:06.712Z,26.30
2017-11-17T11:23:35.123Z,36.93
2017-11-17T11:26:03.369Z,41.10
2017-11-17T11:28:31.907Z,37.50
2017-11-17T11:31:00.165Z,39.23
2017-11-17T11:33:29.905Z,36.53
2017-11-17T11:35:58.284Z,38.67
2017-11-17T11:38:26.670Z,35.50
2017-11-17T11:40:56.157Z,31.97
2017-11-17T11:43:24.439Z,29.93
2017-11-17T11:45:52.672Z,29.23
2017-11-17T11:48:22.151Z,33.83
2017-11-17T11:50:50.475Z,32.73
2017-11-17T11:53:19.855Z,33.70
2017-11-17T11:55:48.315Z,29.40
2017-11-17T11:58:16.588Z,28.93
2017-11-17T12:00:45.627Z,33.70
2017-11-17T12:03:14.108Z,29.23
2017-11-17T12:05:42.389Z,34.70
2017-11-17T12:08:11.472Z,35.10
2017-11-17T12:10:40.770Z,34.07
2017-11-17T12:13:17.571Z,22.97
2017-11-17T12:15:46.388Z,25.47
2017-11-17T12:18:14.924Z,30.77
2017-11-17T12:20:44.223Z,25.77
2017-11-17T12:23:13.405Z,37.50
2017-11-17T12:25:42.919Z,42.20
2017-11-17T12:28:13.075Z,37.70
2017-11-17T12:30:41.528Z,26.67
2017-11-17T12:33:10.487Z,26.33
2017-11-17T12:35:40.589Z,30.17
2017-11-17T12:38:09.531Z,33.10
2017-11-17T12:40:39.041Z,32.90
2017-11-17T12:43:07.758Z,29.97
2017-11-17T12:45:36.438Z,26.47
2017-11-17T12:48:05.144Z,27.03
2017-11-17T12:50:33.609Z,26.73
2017-11-17T12:53:02.320Z,33.20
2017-11-17T12:55:30.690Z,29.37
2017-11-17T12:58:02.617Z,24.27
2017-11-17T13:00:31.139Z,22.60
2017-11-17T13:02:59.663Z,20.87
2017-11-17T13:05:27.939Z,30.93
2017-11-17T13:07:56.308Z,26.30
2017-11-17T13:10:24.718Z,21.50
2017-11-17T13:12:53.376Z,25.57
2017-11-17T13:15:21.735Z,149.73
2017-11-17T13:17:57.735Z,76.17
2017-11-17T13:20:25.996Z,20.30
2017-11-17T13:22:54.375Z,37.53
2017-11-17T13:25:25.515Z,29.87
2017-11-17T13:27:55.044Z,26.17
2017-11-17T13:30:26.211Z,25.47
2017-11-17T13:32:54.754Z,27.87
2017-11-17T13:35:24.095Z,28.23
2017-11-17T13:37:52.510Z,38.43
2017-11-17T13:40:24.260Z,26.80
2017-11-17T13:42:56.306Z,30.30
2017-11-17T13:45:25.927Z,28.50
2017-11-17T13:47:55.993Z,33.30
2017-11-17T13:50:24.625Z,35.50
2017-11-17T13:52:53.279Z,35.33
2017-11-17T13:55:21.933Z,40.13
2017-11-17T13:57:50.577Z,33.63
2017-11-17T14:00:19.122Z,34.67
2017-11-17T14:02:47.633Z,37.27
2017-11-17T14:05:17.256Z,28.73
2017-11-17T14:07:47.467Z,42.03
2017-11-17T14:10:16.060Z,43.83
2017-11-17T14:12:46.233Z,40.50
2017-11-17T14:15:14.861Z,45.77
2017-11-17T14:17:51.091Z,32.17
2017-11-17T14:20:19.649Z,47.97
2017-11-17T14:22:49.335Z,45.53
2017-11-17T14:25:17.997Z,45.73
2017-11-17T14:27:48.044Z,53.00
2017-11-17T14:30:17.263Z,36.23
2017-11-17T14:32:45.770Z,50.90
2017-11-17T14:35:15.330Z,56.43
2017-11-17T14:37:44.669Z,51.13
2017-11-17T14:40:13.297Z,42.37
2017-11-17T14:42:43.448Z,62.00
2017-11-17T14:45:12.473Z,41.40
2017-11-17T14:47:41.171Z,62.67
2017-11-17T14:50:11.655Z,56.20
2017-11-17T14:52:40.840Z,49.20
2017-11-17T14:55:09.201Z,41.27
2017-11-17T14:57:38.075Z,32.00
2017-11-17T15:00:07.571Z,48.07
2017-11-17T15:02:36.024Z,57.13
2017-11-17T15:05:04.993Z,69.40
2017-11-17T15:07:33.813Z,69.07
2017-11-17T15:10:03.690Z,76.60
2017-11-17T15:12:33.018Z,62.73
2017-11-17T15:15:01.403Z,41.23
2017-11-17T15:17:30.930Z,66.43
2017-11-17T15:20:00.091Z,54.23
2017-11-17T15:22:29.305Z,56.53
2017-11-17T15:24:58.691Z,57.07
2017-11-17T15:27:27.702Z,56.50
2017-11-17T15:29:56.117Z,50.43
2017-11-17T15:32:25.632Z,47.30
2017-11-17T15:34:55.381Z,65.00
2017-11-17T15:37:24.685Z,61.90
2017-11-17T15:39:57.310Z,64.03
2017-11-17T15:42:27.944Z,65.67
2017-11-17T15:44:57.952Z,50.87
2017-11-17T15:47:29.415Z,57.40
2017-11-17T15:49:58.606Z,55.43
2017-11-17T15:52:28.085Z,74.60
2017-11-17T15:54:56.781Z,72.03
2017-11-17T15:57:26.842Z,55.57
2017-11-17T15:59:55.416Z,47.63
2017-11-17T16:02:24.375Z,55.70
2017-11-17T16:04:53.213Z,47.90
2017-11-17T16:07:22.149Z,109.37
2017-11-17T16:09:50.749Z,78.83
2017-11-17T16:12:21.712Z,70.07
2017-11-17T16:14:56.920Z,95.00
2017-11-17T16:17:28.271Z,81.20
2017-11-17T16:19:57.291Z,105.63
2017-11-17T16:22:25.831Z,113.80
2017-11-17T16:24:54.881Z,110.77
2017-11-17T16:27:23.565Z,72.27
2017-11-17T16:29:55.146Z,80.83
2017-11-17T16:32:23.866Z,69.80
2017-11-17T16:34:52.181Z,77.27
2017-11-17T16:37:20.828Z,83.90
2017-11-17T16:39:49.931Z,71.57
2017-11-17T16:42:18.388Z,63.50
2017-11-17T16:44:48.814Z,61.50
2017-11-17T16:47:18.038Z,62.30
2017-11-17T16:49:47.340Z,54.77
2017-11-17T16:52:18.690Z,61.80
2017-11-17T16:54:46.979Z,65.40
2017-11-17T16:57:15.485Z,60.30
2017-11-17T16:59:44.088Z,65.97
2017-11-17T17:02:13.517Z,46.23
2017-11-17T17:04:43.023Z,56.70
2017-11-17T17:07:13.440Z,62.63
2017-11-17T17:09:44.941Z,68.57
2017-11-17T17:12:16.929Z,50.50
2017-11-17T17:14:45.764Z,59.87
2017-11-17T17:17:14.822Z,54.60
2017-11-17T17:19:43.602Z,49.27
2017-11-17T17:22:16.110Z,57.87
2017-11-17T17:24:46.263Z,55.60
2017-11-17T17:27:21.354Z,63.60
2017-11-17T17:29:51.282Z,73.57
2017-11-17T17:32:19.580Z,72.23
2017-11-17T17:34:49.642Z,57.03
2017-11-17T17:37:19.301Z,56.43
2017-11-17T17:39:48.174Z,64.30
2017-11-17T17:42:17.925Z,63.80
2017-11-17T17:44:46.387Z,59.30
2017-11-17T17:47:15.401Z,64.20
2017-11-17T17:49:44.979Z,65.40
2017-11-17T17:52:14.462Z,63.10
2017-11-17T17:54:44.083Z,58.23
2017-11-17T17:57:13.244Z,102.50
2017-11-17T17:59:41.673Z,83.83
2017-11-17T18:02:10.390Z,72.57
2017-11-17T18:04:39.642Z,77.30
2017-11-17T18:07:09.600Z,83.33
2017-11-17T18:09:44.406Z,92.60
2017-11-17T18:12:19.962Z,80.27
2017-11-17T18:15:00.986Z,70.40
2017-11-17T18:17:31.505Z,64.57
2017-11-17T18:20:02.242Z,69.20
2017-11-17T18:22:31.955Z,65.67
2017-11-17T18:25:01.709Z,103.60
2017-11-17T18:27:30.665Z,106.77
2017-11-17T18:30:02.807Z,87.90
2017-11-17T18:32:31.564Z,64.07
2017-11-17T18:34:59.917Z,73.33
2017-11-17T18:37:32.319Z,105.87
2017-11-17T18:40:01.679Z,135.40
2017-11-17T18:42:33.132Z,81.07
2017-11-17T18:45:01.545Z,79.53
2017-11-17T18:47:29.874Z,97.77
2017-11-17T18:49:59.191Z,85.37
2017-11-17T18:52:27.565Z,72.37
2017-11-17T18:54:56.157Z,65.73
2017-11-17T18:57:24.839Z,79.40
2017-11-17T18:59:53.187Z,82.33
2017-11-17T19:02:22.711Z,111.13
2017-11-17T19:04:51.113Z,99.23
2017-11-17T19:07:19.480Z,91.20
2017-11-17T19:09:47.937Z,94.97
2017-11-17T19:12:16.427Z,97.90
2017-11-17T19:14:44.900Z,96.33
2017-11-17T19:17:13.997Z,92.33
2017-11-17T19:19:43.213Z,123.57
2017-11-17T19:22:11.904Z,126.90
2017-11-17T19:24:40.295Z,93.60
2017-11-17T19:27:08.727Z,99.40
2017-11-17T19:29:37.381Z,95.17
2017-11-17T19:32:06.347Z,87.87
2017-11-17T19:34:35.022Z,355.67
2017-11-17T19:37:04.995Z,465.33
2017-11-17T19:39:33.441Z,256.23
2017-11-17T19:42:02.107Z,141.13
2017-11-17T19:44:30.535Z,134.00
2017-11-17T19:46:59.245Z,131.47
2017-11-17T19:49:28.437Z,431.63
2017-11-17T19:51:56.922Z,426.30
2017-11-17T19:54:25.725Z,366.27
2017-11-17T19:56:54.968Z,461.50
2017-11-17T19:59:23.448Z,146.73
2017-11-17T20:01:51.945Z,247.13
2017-11-17T20:04:21.094Z,128.80
2017-11-17T20:06:49.569Z,250.93
2017-11-17T20:09:18.249Z,178.77
2017-11-17T20:11:47.237Z,139.33
2017-11-17T20:14:15.999Z,154.77
2017-11-17T20:16:45.063Z,150.17
2017-11-17T20:19:14.694Z,204.33
2017-11-17T20:21:43.518Z,171.43
2017-11-17T20:24:13.529Z,130.30
2017-11-17T20:26:42.009Z,130.23
2017-11-17T20:29:10.919Z,116.63
2017-11-17T20:31:40.650Z,127.80
2017-11-17T20:34:09.482Z,91.17
2017-11-17T20:36:39.177Z,113.73
2017-11-17T20:39:08.320Z,103.27
2017-11-17T20:41:37.011Z,87.77
2017-11-17T20:44:08.540Z,69.73
2017-11-17T20:46:37.424Z,90.53
2017-11-17T20:49:07.682Z,92.33
2017-11-17T20:51:38.112Z,98.00
2017-11-17T20:54:08.217Z,105.53
2017-11-17T20:56:38.345Z,314.40
2017-11-17T20:59:07.206Z,343.07
2017-11-17T21:01:37.873Z,408.67
2017-11-17T21:04:06.403Z,156.03
2017-11-17T21:06:38.736Z,101.70
2017-11-17T21:09:07.673Z,97.57
2017-11-17T21:11:36.514Z,96.83
2017-11-17T21:14:05.033Z,84.37
2017-11-17T21:16:34.310Z,117.50
2017-11-17T21:19:06.154Z,125.37
2017-11-17T21:21:34.755Z,144.90
2017-11-17T21:24:03.726Z,159.43
2017-11-17T21:26:32.004Z,175.00
2017-11-17T21:29:00.976Z,129.37
2017-11-17T21:31:29.746Z,1029.20
2017-11-17T21:34:00.472Z,142.17
2017-11-17T21:36:30.523Z,497.80
2017-11-17T21:39:02.140Z,427.63
2017-11-17T21:41:31.496Z,499.00
2017-11-17T21:44:00.656Z,207.57
2017-11-17T21:46:30.951Z,228.33
2017-11-17T21:48:59.741Z,279.03
2017-11-17T21:51:31.289Z,254.13
2017-11-17T21:54:01.329Z,489.47
2017-11-17T21:56:30.567Z,517.77
2017-11-17T21:58:59.367Z,247.47
2017-11-17T22:01:28.266Z,356.40
2017-11-17T22:03:58.272Z,485.37
2017-11-17T22:06:27.038Z,136.87
2017-11-17T22:08:55.743Z,375.27
2017-11-17T22:11:24.636Z,283.70
2017-11-17T22:13:54.229Z,842.37
2017-11-17T22:16:22.868Z,1014.67
2017-11-17T22:18:51.549Z,765.17
2017-11-17T22:21:20.299Z,781.77
2017-11-17T22:23:49.016Z,494.87
2017-11-17T22:26:17.358Z,436.87
2017-11-17T22:28:46.076Z,310.17
2017-11-17T22:31:15.604Z,404.90
2017-11-17T22:33:44.336Z,397.00
2017-11-17T22:36:13.373Z,303.37
2017-11-17T22:38:43.065Z,395.70
2017-11-17T22:41:12.869Z,311.93
2017-11-17T22:43:41.321Z,342.63
2017-11-17T22:46:09.808Z,377.03
2017-11-17T22:48:38.703Z,202.13
2017-11-17T22:51:07.112Z,317.23
2017-11-17T22:53:37.375Z,287.77
2017-11-17T22:56:07.183Z,360.80
2017-11-17T22:58:35.722Z,107.47
2017-11-17T23:01:04.369Z,160.70
2017-11-17T23:03:33.178Z,490.77
2017-11-17T23:06:01.979Z,86.07
2017-11-17T23:08:31.448Z,168.27
2017-11-17T23:10:59.835Z,170.67
2017-11-17T23:13:29.153Z,172.07
2017-11-17T23:15:57.889Z,299.53
2017-11-17T23:18:26.385Z,232.60
2017-11-17T23:20:55.674Z,202.83
2017-11-17T23:23:24.472Z,366.00
2017-11-17T23:25:54.117Z,375.43
2017-11-17T23:28:23.631Z,373.77
2017-11-17T23:30:51.987Z,457.97
2017-11-17T23:33:21.020Z,201.93
2017-11-17T23:35:50.441Z,168.13
2017-11-17T23:38:20.120Z,110.13
2017-11-17T23:40:49.685Z,124.70
2017-11-17T23:43:24.302Z,284.37
2017-11-17T23:45:54.762Z,462.80
2017-11-17T23:48:23.350Z,507.37
2017-11-17T23:50:52.930Z,484.93
2017-11-17T23:53:22.487Z,83.67
2017-11-17T23:55:51.311Z,256.47
2017-11-17T23:58:19.756Z,157.10
